Passmore, Pennsylvania
Current Conditions -  °F | °C
As of 1:54 PM on Friday 21 Nov 2014 (Local Time) from KPTW Reporting Station
Clear Clear  
Wind Chill: 24°   Ceiling: Unl
Heat Index: 34°   Visibility: 10mi
Dew Point:   Wind: 15mph
Humidity: 35%   Direction: 320°NW
Pressure: 30.39"   Gusts: 20mph
Location:  40.3927°N, 75.6313°W
Report Text: KPTW 211854Z AUTO 32013G17KT 10SM CLR 01/M13 A3039 RMK AO2 SLP290 T00111128
Loading
Personal Weather Stations






























Interactive Weather Map New forecast layout! Learn more

10-Day Weather Forecast

Advertisements
Track Severe Weather on mobile